Aérodrome :
LOGIN :

S'inscrire | Disclaimer

   EN    FR    IT 

 










Légende :    VFR   VFR Marginal   IFR   IFR Intensif   IFR Très Intensif
Visi : 
Plafond : 
>= 8 km
>= 3000ft
5 à 8 km
1000 à 3000 ft
1500m à 5 km
500 à 1000 ft
800 à 1500m
200 à 500 ft
< 800m
< 200 ft
Symboles :   Orages  Brouillard  Fortes neiges  Fortes précipitations  Vent > 20 kt
SIGMETs :   Divers  Orages  Givrage  Turbulence  Onde Orograph.  Cendres Volcan.







- Altitude de l'aérodrome : 17 ft
- Code IATA : GRQ


EHGG - Groningen Eelde

DERNIER METAR :
  • 230025Z AUTO 24011KT 9999 FEW009 SCT014 FEW015CB BKN017 12/11 Q1010

METARs EXPIRÉS :
  • 222355Z AUTO 24010KT 9999 -RADZ FEW007 SCT010 BKN021 12/11 Q1010
  • 222325Z AUTO 24010KT 210V270 9999 FEW007 FEW015CB SCT020 OVC036 11/11 Q1010
  • 222255Z AUTO 24010KT 9999 -SHRA FEW005 SCT007 FEW015CB BKN017 11/11 Q1010 REDZ
  • 222225Z AUTO 22010KT 8000 -SHRA FEW007 SCT011 FEW015CB BKN016 11/11 Q1010 RERA REDZ
  • 222155Z AUTO 22009KT 9999 FEW005 BKN006 BKN008 FEW015CB 11/11 Q1010
  • 222125Z AUTO 22010KT 9999 -RADZ FEW005 SCT007 BKN011 FEW015CB 11/11 Q1010 RERA REDZ

TAF TAF EHGG
Valide du 23 à 00h jusqu'au 24 à 06h UTC


222316Z 2300/2406 22010KT 9999 BKN020
BECMG 2300/2302 25012KT
TEMPO 2300/2302 5000 RADZ SHRA BKN007 SCT018TCU
TEMPO 2302/2311 25017G27KT 5000 RADZ SHRA SCT008 BKN012 SCT020TCU
BECMG 2309/2311 28012KT
BECMG 2316/2319 22005KT
BECMG 2321/2324 3500 -DZRA BKN005
BECMG 2401/2403 2000 BR -DZ BKN003
Pas de NOTAMs connus pour ce terrain.
1 SIGMET publié pour la FIR Amsterdam (EHAA) :
 
Turbulence forte
EHAA SIGMET 1 VALID 222300/230300 EHDB
EHAA AMSTERDAM FIR SEV TURB FCST NE OF LINE N5046 E00547 - N5455 E00258 FL220/330 MOV NE 10KT NC=



MET'MAP, la Météo Aéronautique d'un coup d'oeil ! - Copyright ORBIFLY Décembre 2007 - Disclaimer

ORBIFLY MET'MAP TEAM :

Programmation & Développement : Alexandra Zaïnal
Conception & Développement : Baudouin d'Aumeries
Co-Programmation & Développement : Marc-Olivier Méhu
Soutien technique & logistique : Manuel Goepfert

Contact : metmap@orbifly.com




SOURCES & CREDITS :

   NOAA